9L2

Edwards Af Aux North Base Airport

Edwards, California, USA
METAR K9L2 170358Z AUTO 00000KT 9SM OVC200 10/M17 A3001 RMK AO2 SLP166 T01021171
Observed Flight Rules
Nov-17 @ 03:58 UTC (42 minutes ago) Visual Flight Rules
Visibility Clouds
9 miles
  • Overcast at 20,000' AGL
Temperatures Readings
Current 10°C / 50°F
Dewpoint -17°C / 1°F
Humidity 13%
Altimeter 30.01" Hg
Pressure 1016.6 hPa
Elevation 701
METAR K9L2 170358Z AUTO 00000KT 9SM OVC200 10/M17 A3001 RMK AO2 SLP166 T01021171
Observed Flight Rules
Nov-17 @ 03:58 UTC
(42 minutes ago)
VFR
Clouds
  • Overcast at 20,000' AGL
Temperature Dewpoint
10°C / 50°F -17°C / 1°F
Humidity Altimeter Pressure
13% 30.01" Hg 1016.6 hPa